sensor_id;sensor_type;location;lat;lon;timestamp;temperature;humidity
14210;DHT22;7188;56.070;12.698;2023-04-01T00:01:32;2.20;1.00
14210;DHT22;7188;56.070;12.698;2023-04-01T00:03:58;2.10;1.00
14210;DHT22;7188;56.070;12.698;2023-04-01T00:06:24;2.10;1.00
14210;DHT22;7188;56.070;12.698;2023-04-01T00:08:50;2.20;1.00
14210;DHT22;7188;56.070;12.698;2023-04-01T00:11:16;2.20;1.00
14210;DHT22;7188;56.070;12.698;2023-04-01T00:13:42;2.20;99.90
14210;DHT22;7188;56.070;12.698;2023-04-01T00:16:09;2.10;99.90
14210;DHT22;7188;56.070;12.698;2023-04-01T00:18:35;2.10;1.00
14210;DHT22;7188;56.070;12.698;2023-04-01T00:21:00;2.10;1.00
14210;DHT22;7188;56.070;12.698;2023-04-01T00:23:26;2.10;1.00
14210;DHT22;7188;56.070;12.698;2023-04-01T00:25:52;2.10;1.00
14210;DHT22;7188;56.070;12.698;2023-04-01T00:28:19;2.10;1.00
14210;DHT22;7188;56.070;12.698;2023-04-01T00:30:45;2.10;1.00
14210;DHT22;7188;56.070;12.698;2023-04-01T00:33:11;2.10;1.00
14210;DHT22;7188;56.070;12.698;2023-04-01T00:35:37;2.10;1.00
14210;DHT22;7188;56.070;12.698;2023-04-01T00:38:03;2.00;1.00
14210;DHT22;7188;56.070;12.698;2023-04-01T00:40:30;2.00;1.00
14210;DHT22;7188;56.070;12.698;2023-04-01T00:42:57;2.00;1.00
14210;DHT22;7188;56.070;12.698;2023-04-01T00:45:33;2.00;1.00
14210;DHT22;7188;56.070;12.698;2023-04-01T00:48:03;1.90;1.00
14210;DHT22;7188;56.070;12.698;2023-04-01T00:50:30;1.90;1.00
14210;DHT22;7188;56.070;12.698;2023-04-01T00:52:58;1.90;1.00
14210;DHT22;7188;56.070;12.698;2023-04-01T00:55:25;1.80;99.90
14210;DHT22;7188;56.070;12.698;2023-04-01T00:57:53;1.80;99.90
14210;DHT22;7188;56.070;12.698;2023-04-01T01:00:19;1.80;99.90
14210;DHT22;7188;56.070;12.698;2023-04-01T01:02:45;1.80;99.90
14210;DHT22;7188;56.070;12.698;2023-04-01T01:05:16;1.90;99.90
14210;DHT22;7188;56.070;12.698;2023-04-01T01:08:03;1.90;16.20
14210;DHT22;7188;56.070;12.698;2023-04-01T01:10:39;1.80;77.40
14210;DHT22;7188;56.070;12.698;2023-04-01T01:13:23;1.80;99.90
14210;DHT22;7188;56.070;12.698;2023-04-01T01:15:58;1.80;99.90
14210;DHT22;7188;56.070;12.698;2023-04-01T01:21:26;1.70;99.90
14210;DHT22;7188;56.070;12.698;2023-04-01T01:26:57;1.70;99.90
14210;DHT22;7188;56.070;12.698;2023-04-01T01:37:43;1.70;99.90
14210;DHT22;7188;56.070;12.698;2023-04-01T01:40:11;1.70;70.10
14210;DHT22;7188;56.070;12.698;2023-04-01T01:42:41;1.70;16.70
14210;DHT22;7188;56.070;12.698;2023-04-01T01:45:10;1.80;31.70
14210;DHT22;7188;56.070;12.698;2023-04-01T01:47:37;1.80;1.00
14210;DHT22;7188;56.070;12.698;2023-04-01T01:50:04;1.70;1.00
14210;DHT22;7188;56.070;12.698;2023-04-01T01:52:30;1.70;17.90
14210;DHT22;7188;56.070;12.698;2023-04-01T01:54:57;1.70;31.40
14210;DHT22;7188;56.070;12.698;2023-04-01T01:57:31;1.70;99.90
14210;DHT22;7188;56.070;12.698;2023-04-01T02:00:06;1.70;79.50
14210;DHT22;7188;56.070;12.698;2023-04-01T02:02:42;1.70;94.50
14210;DHT22;7188;56.070;12.698;2023-04-01T02:05:16;1.70;45.90
14210;DHT22;7188;56.070;12.698;2023-04-01T02:07:44;1.70;79.00
14210;DHT22;7188;56.070;12.698;2023-04-01T02:10:13;1.70;99.90
14210;DHT22;7188;56.070;12.698;2023-04-01T02:12:40;1.70;99.90
14210;DHT22;7188;56.070;12.698;2023-04-01T02:15:12;1.70;95.10
14210;DHT22;7188;56.070;12.698;2023-04-01T02:17:43;1.70;99.90
14210;DHT22;7188;56.070;12.698;2023-04-01T02:20:22;1.70;49.10
14210;DHT22;7188;56.070;12.698;2023-04-01T02:22:51;1.70;1.00
14210;DHT22;7188;56.070;12.698;2023-04-01T02:25:22;1.70;95.60
14210;DHT22;7188;56.070;12.698;2023-04-01T02:27:49;1.70;34.50
14210;DHT22;7188;56.070;12.698;2023-04-01T02:30:16;1.60;1.00
14210;DHT22;7188;56.070;12.698;2023-04-01T02:32:42;1.70;27.80
14210;DHT22;7188;56.070;12.698;2023-04-01T02:35:14;1.70;1.00
14210;DHT22;7188;56.070;12.698;2023-04-01T02:37:41;1.70;99.90
14210;DHT22;7188;56.070;12.698;2023-04-01T02:40:09;1.70;99.90
14210;DHT22;7188;56.070;12.698;2023-04-01T02:42:35;1.60;99.90
14210;DHT22;7188;56.070;12.698;2023-04-01T02:45:01;1.70;99.90
14210;DHT22;7188;56.070;12.698;2023-04-01T02:47:27;1.70;99.90
14210;DHT22;7188;56.070;12.698;2023-04-01T02:49:53;1.60;93.10
14210;DHT22;7188;56.070;12.698;2023-04-01T02:52:28;1.60;99.90
14210;DHT22;7188;56.070;12.698;2023-04-01T02:54:55;1.60;99.90
14210;DHT22;7188;56.070;12.698;2023-04-01T02:57:21;1.60;99.90
14210;DHT22;7188;56.070;12.698;2023-04-01T02:59:47;1.60;8.70
14210;DHT22;7188;56.070;12.698;2023-04-01T03:02:13;1.60;99.50
14210;DHT22;7188;56.070;12.698;2023-04-01T03:04:39;1.60;99.90
14210;DHT22;7188;56.070;12.698;2023-04-01T03:07:14;1.50;1.00
14210;DHT22;7188;56.070;12.698;2023-04-01T03:09:40;1.50;1.00
14210;DHT22;7188;56.070;12.698;2023-04-01T03:12:21;1.50;1.00
14210;DHT22;7188;56.070;12.698;2023-04-01T03:14:47;1.50;99.90
14210;DHT22;7188;56.070;12.698;2023-04-01T03:17:12;1.50;64.50
14210;DHT22;7188;56.070;12.698;2023-04-01T03:19:38;1.50;20.20
14210;DHT22;7188;56.070;12.698;2023-04-01T03:22:04;1.50;26.10
14210;DHT22;7188;56.070;12.698;2023-04-01T03:24:29;1.50;1.00
14210;DHT22;7188;56.070;12.698;2023-04-01T03:26:55;1.50;1.00
14210;DHT22;7188;56.070;12.698;2023-04-01T03:29:21;1.50;1.00
14210;DHT22;7188;56.070;12.698;2023-04-01T03:31:46;1.50;1.00
14210;DHT22;7188;56.070;12.698;2023-04-01T03:34:12;1.50;1.00
14210;DHT22;7188;56.070;12.698;2023-04-01T03:36:37;1.50;1.00
14210;DHT22;7188;56.070;12.698;2023-04-01T03:39:03;1.50;1.00
14210;DHT22;7188;56.070;12.698;2023-04-01T03:41:29;1.50;98.60
14210;DHT22;7188;56.070;12.698;2023-04-01T03:43:56;1.50;1.00
14210;DHT22;7188;56.070;12.698;2023-04-01T03:46:21;1.50;1.00
14210;DHT22;7188;56.070;12.698;2023-04-01T03:48:47;1.50;1.00
14210;DHT22;7188;56.070;12.698;2023-04-01T03:51:28;1.40;1.00
14210;DHT22;7188;56.070;12.698;2023-04-01T03:53:54;1.40;1.00
14210;DHT22;7188;56.070;12.698;2023-04-01T03:56:19;1.40;1.00
14210;DHT22;7188;56.070;12.698;2023-04-01T03:58:45;1.40;1.00
14210;DHT22;7188;56.070;12.698;2023-04-01T04:01:15;1.40;1.00
14210;DHT22;7188;56.070;12.698;2023-04-01T04:03:41;1.30;1.00
14210;DHT22;7188;56.070;12.698;2023-04-01T04:06:11;1.30;1.00
14210;DHT22;7188;56.070;12.698;2023-04-01T04:08:37;1.30;1.00
14210;DHT22;7188;56.070;12.698;2023-04-01T04:11:02;1.30;1.00
14210;DHT22;7188;56.070;12.698;2023-04-01T04:13:28;1.30;1.00
14210;DHT22;7188;56.070;12.698;2023-04-01T04:15:53;1.30;1.00
14210;DHT22;7188;56.070;12.698;2023-04-01T04:18:19;1.30;1.00
14210;DHT22;7188;56.070;12.698;2023-04-01T04:20:45;1.20;99.90
14210;DHT22;7188;56.070;12.698;2023-04-01T04:23:13;1.20;99.90
14210;DHT22;7188;56.070;12.698;2023-04-01T04:25:39;1.20;99.90
14210;DHT22;7188;56.070;12.698;2023-04-01T04:28:05;1.20;1.00
14210;DHT22;7188;56.070;12.698;2023-04-01T04:30:30;1.20;50.80
14210;DHT22;7188;56.070;12.698;2023-04-01T04:32:56;1.20;99.90
14210;DHT22;7188;56.070;12.698;2023-04-01T04:35:21;1.20;1.00
14210;DHT22;7188;56.070;12.698;2023-04-01T04:37:47;1.20;1.00
14210;DHT22;7188;56.070;12.698;2023-04-01T04:40:13;1.20;1.00
14210;DHT22;7188;56.070;12.698;2023-04-01T04:42:38;1.20;99.90
14210;DHT22;7188;56.070;12.698;2023-04-01T04:45:04;1.10;1.00
14210;DHT22;7188;56.070;12.698;2023-04-01T04:47:31;1.10;1.00
14210;DHT22;7188;56.070;12.698;2023-04-01T04:49:56;1.10;1.00
14210;DHT22;7188;56.070;12.698;2023-04-01T04:52:22;1.00;1.00
14210;DHT22;7188;56.070;12.698;2023-04-01T04:54:47;1.00;1.00
14210;DHT22;7188;56.070;12.698;2023-04-01T04:57:13;1.00;99.90
14210;DHT22;7188;56.070;12.698;2023-04-01T04:59:39;1.00;1.00
14210;DHT22;7188;56.070;12.698;2023-04-01T05:02:04;1.00;99.90
14210;DHT22;7188;56.070;12.698;2023-04-01T05:04:34;1.00;1.00
14210;DHT22;7188;56.070;12.698;2023-04-01T05:07:01;1.00;95.80
14210;DHT22;7188;56.070;12.698;2023-04-01T05:09:26;1.00;1.00
14210;DHT22;7188;56.070;12.698;2023-04-01T05:11:52;0.90;1.00
14210;DHT22;7188;56.070;12.698;2023-04-01T05:14:17;0.80;99.90
14210;DHT22;7188;56.070;12.698;2023-04-01T05:16:43;0.90;99.90
14210;DHT22;7188;56.070;12.698;2023-04-01T05:19:09;0.90;89.70
14210;DHT22;7188;56.070;12.698;2023-04-01T05:21:34;0.80;1.00
14210;DHT22;7188;56.070;12.698;2023-04-01T05:24:00;0.80;99.90
14210;DHT22;7188;56.070;12.698;2023-04-01T05:26:26;0.70;18.80
14210;DHT22;7188;56.070;12.698;2023-04-01T05:28:51;0.70;1.00
14210;DHT22;7188;56.070;12.698;2023-04-01T05:31:17;0.70;1.00
14210;DHT22;7188;56.070;12.698;2023-04-01T05:33:43;0.70;1.00
14210;DHT22;7188;56.070;12.698;2023-04-01T05:36:12;0.80;1.00
14210;DHT22;7188;56.070;12.698;2023-04-01T05:39:06;0.70;99.90
14210;DHT22;7188;56.070;12.698;2023-04-01T05:41:37;0.70;99.90
14210;DHT22;7188;56.070;12.698;2023-04-01T05:44:15;0.70;99.90
14210;DHT22;7188;56.070;12.698;2023-04-01T05:46:44;0.70;99.90
14210;DHT22;7188;56.070;12.698;2023-04-01T05:49:10;0.70;99.90
14210;DHT22;7188;56.070;12.698;2023-04-01T05:51:35;0.70;99.90
14210;DHT22;7188;56.070;12.698;2023-04-01T05:54:01;0.60;99.90
14210;DHT22;7188;56.070;12.698;2023-04-01T05:56:27;0.60;99.90
14210;DHT22;7188;56.070;12.698;2023-04-01T05:58:53;0.60;99.90
14210;DHT22;7188;56.070;12.698;2023-04-01T06:01:20;0.70;99.90
14210;DHT22;7188;56.070;12.698;2023-04-01T06:03:45;0.60;38.90
14210;DHT22;7188;56.070;12.698;2023-04-01T06:06:16;0.60;60.10
14210;DHT22;7188;56.070;12.698;2023-04-01T06:08:44;0.60;1.00
14210;DHT22;7188;56.070;12.698;2023-04-01T06:19:40;0.70;1.00
14210;DHT22;7188;56.070;12.698;2023-04-01T06:54:39;1.10;99.90
14210;DHT22;7188;56.070;12.698;2023-04-01T06:57:24;1.10;99.90
14210;DHT22;7188;56.070;12.698;2023-04-01T06:59:55;1.20;99.90
14210;DHT22;7188;56.070;12.698;2023-04-01T07:02:47;1.00;99.90
14210;DHT22;7188;56.070;12.698;2023-04-01T07:05:15;1.00;1.00
14210;DHT22;7188;56.070;12.698;2023-04-01T07:08:01;1.00;1.00
14210;DHT22;7188;56.070;12.698;2023-04-01T07:10:43;1.00;71.20
14210;DHT22;7188;56.070;12.698;2023-04-01T07:13:29;1.10;1.00
14210;DHT22;7188;56.070;12.698;2023-04-01T07:22:00;0.90;1.00
14210;DHT22;7188;56.070;12.698;2023-04-01T07:24:34;1.00;1.00
14210;DHT22;7188;56.070;12.698;2023-04-01T07:27:02;0.90;1.00
14210;DHT22;7188;56.070;12.698;2023-04-01T07:29:28;1.00;1.00
14210;DHT22;7188;56.070;12.698;2023-04-01T07:34:52;1.20;1.00
14210;DHT22;7188;56.070;12.698;2023-04-01T07:40:20;1.20;1.00
14210;DHT22;7188;56.070;12.698;2023-04-01T07:43:11;1.40;1.00
14210;DHT22;7188;56.070;12.698;2023-04-01T07:48:57;1.30;1.00
14210;DHT22;7188;56.070;12.698;2023-04-01T07:51:33;1.50;1.00
14210;DHT22;7188;56.070;12.698;2023-04-01T07:54:24;1.50;1.00
14210;DHT22;7188;56.070;12.698;2023-04-01T07:57:00;1.80;1.00
14210;DHT22;7188;56.070;12.698;2023-04-01T08:00:06;1.80;1.00
14210;DHT22;7188;56.070;12.698;2023-04-01T08:08:05;1.90;99.90
14210;DHT22;7188;56.070;12.698;2023-04-01T08:11:03;2.00;99.90
14210;DHT22;7188;56.070;12.698;2023-04-01T08:22:07;2.40;99.90
14210;DHT22;7188;56.070;12.698;2023-04-01T08:27:01;2.40;99.90
14210;DHT22;7188;56.070;12.698;2023-04-01T08:29:57;2.30;99.90
14210;DHT22;7188;56.070;12.698;2023-04-01T08:32:37;2.30;99.90
14210;DHT22;7188;56.070;12.698;2023-04-01T08:38:01;2.60;99.90
14210;DHT22;7188;56.070;12.698;2023-04-01T08:47:04;2.70;99.90
14210;DHT22;7188;56.070;12.698;2023-04-01T08:49:35;2.80;99.90
14210;DHT22;7188;56.070;12.698;2023-04-01T09:12:42;3.70;76.50
14210;DHT22;7188;56.070;12.698;2023-04-01T09:15:27;3.70;51.00
14210;DHT22;7188;56.070;12.698;2023-04-01T09:30:48;3.60;26.70
14210;DHT22;7188;56.070;12.698;2023-04-01T09:35:47;3.90;8.60
14210;DHT22;7188;56.070;12.698;2023-04-01T09:38:43;4.10;1.00
14210;DHT22;7188;56.070;12.698;2023-04-01T10:00:32;4.70;1.00
14210;DHT22;7188;56.070;12.698;2023-04-01T10:14:28;4.90;1.00
14210;DHT22;7188;56.070;12.698;2023-04-01T10:22:56;5.20;1.00
14210;DHT22;7188;56.070;12.698;2023-04-01T10:36:56;5.30;1.00
14210;DHT22;7188;56.070;12.698;2023-04-01T10:42:27;5.40;1.00
14210;DHT22;7188;56.070;12.698;2023-04-01T10:54:16;5.50;1.00
14210;DHT22;7188;56.070;12.698;2023-04-01T11:12:27;6.00;1.00
14210;DHT22;7188;56.070;12.698;2023-04-01T11:15:16;6.10;1.00
14210;DHT22;7188;56.070;12.698;2023-04-01T11:18:07;6.00;1.00
14210;DHT22;7188;56.070;12.698;2023-04-01T11:21:30;6.30;1.00
14210;DHT22;7188;56.070;12.698;2023-04-01T11:32:15;6.40;1.00
14210;DHT22;7188;56.070;12.698;2023-04-01T11:34:48;6.60;1.00
14210;DHT22;7188;56.070;12.698;2023-04-01T11:43:26;6.40;1.00
14210;DHT22;7188;56.070;12.698;2023-04-01T11:46:33;6.50;1.00
14210;DHT22;7188;56.070;12.698;2023-04-01T11:55:02;6.70;1.00
14210;DHT22;7188;56.070;12.698;2023-04-01T12:00:51;6.80;1.00
14210;DHT22;7188;56.070;12.698;2023-04-01T12:03:26;6.90;1.00
14210;DHT22;7188;56.070;12.698;2023-04-01T12:12:20;7.10;1.00
14210;DHT22;7188;56.070;12.698;2023-04-01T12:15:26;7.20;1.00
14210;DHT22;7188;56.070;12.698;2023-04-01T12:20:50;7.60;1.00
14210;DHT22;7188;56.070;12.698;2023-04-01T12:32:34;7.20;1.00
14210;DHT22;7188;56.070;12.698;2023-04-01T12:38:19;7.30;1.00
14210;DHT22;7188;56.070;12.698;2023-04-01T12:49:10;7.70;1.00
14210;DHT22;7188;56.070;12.698;2023-04-01T12:54:40;7.80;1.00
14210;DHT22;7188;56.070;12.698;2023-04-01T13:16:39;7.90;1.00
14210;DHT22;7188;56.070;12.698;2023-04-01T13:19:21;8.00;1.00
14210;DHT22;7188;56.070;12.698;2023-04-01T13:38:16;8.10;1.00
14210;DHT22;7188;56.070;12.698;2023-04-01T13:43:32;8.10;1.00
14210;DHT22;7188;56.070;12.698;2023-04-01T13:46:08;8.10;1.00
14210;DHT22;7188;56.070;12.698;2023-04-01T13:51:39;8.30;1.00
14210;DHT22;7188;56.070;12.698;2023-04-01T13:59:50;8.30;1.00
14210;DHT22;7188;56.070;12.698;2023-04-01T14:11:15;8.50;1.00
14210;DHT22;7188;56.070;12.698;2023-04-01T14:14:00;8.50;1.00
14210;DHT22;7188;56.070;12.698;2023-04-01T14:16:37;8.40;1.00
14210;DHT22;7188;56.070;12.698;2023-04-01T14:25:12;8.30;1.00
14210;DHT22;7188;56.070;12.698;2023-04-01T14:28:03;8.20;1.00
14210;DHT22;7188;56.070;12.698;2023-04-01T14:33:16;8.50;1.00
14210;DHT22;7188;56.070;12.698;2023-04-01T14:41:32;8.60;1.00
14210;DHT22;7188;56.070;12.698;2023-04-01T14:44:23;8.70;1.00
14210;DHT22;7188;56.070;12.698;2023-04-01T14:47:08;8.70;1.00
14210;DHT22;7188;56.070;12.698;2023-04-01T14:49:40;8.50;1.00
14210;DHT22;7188;56.070;12.698;2023-04-01T14:52:22;8.40;1.00
14210;DHT22;7188;56.070;12.698;2023-04-01T14:54:49;8.50;1.00
14210;DHT22;7188;56.070;12.698;2023-04-01T15:00:12;8.50;1.00
14210;DHT22;7188;56.070;12.698;2023-04-01T15:02:57;8.40;1.00
14210;DHT22;7188;56.070;12.698;2023-04-01T15:27:37;8.20;1.00
14210;DHT22;7188;56.070;12.698;2023-04-01T15:32:58;8.30;1.00
14210;DHT22;7188;56.070;12.698;2023-04-01T15:41:15;8.10;1.00
14210;DHT22;7188;56.070;12.698;2023-04-01T15:43:47;8.10;1.00
14210;DHT22;7188;56.070;12.698;2023-04-01T15:46:46;8.10;1.00
14210;DHT22;7188;56.070;12.698;2023-04-01T16:00:26;7.90;1.00
14210;DHT22;7188;56.070;12.698;2023-04-01T16:06:21;7.80;1.00
14210;DHT22;7188;56.070;12.698;2023-04-01T16:09:15;7.80;1.00
14210;DHT22;7188;56.070;12.698;2023-04-01T16:11:56;7.80;1.00
14210;DHT22;7188;56.070;12.698;2023-04-01T16:15:21;7.80;1.00
14210;DHT22;7188;56.070;12.698;2023-04-01T16:20:14;7.80;1.00
14210;DHT22;7188;56.070;12.698;2023-04-01T16:26:07;7.50;1.00
14210;DHT22;7188;56.070;12.698;2023-04-01T16:28:44;7.40;1.00
14210;DHT22;7188;56.070;12.698;2023-04-01T16:31:14;7.30;1.00
14210;DHT22;7188;56.070;12.698;2023-04-01T16:34:17;7.30;1.00
14210;DHT22;7188;56.070;12.698;2023-04-01T16:37:07;7.30;1.00
14210;DHT22;7188;56.070;12.698;2023-04-01T16:40:11;7.20;1.00
14210;DHT22;7188;56.070;12.698;2023-04-01T16:42:56;7.10;1.00
14210;DHT22;7188;56.070;12.698;2023-04-01T16:45:40;7.10;1.00
14210;DHT22;7188;56.070;12.698;2023-04-01T16:48:14;7.10;1.00
14210;DHT22;7188;56.070;12.698;2023-04-01T16:53:31;7.00;1.00
14210;DHT22;7188;56.070;12.698;2023-04-01T16:58:33;6.80;1.00
14210;DHT22;7188;56.070;12.698;2023-04-01T17:01:16;6.80;1.00
14210;DHT22;7188;56.070;12.698;2023-04-01T17:03:45;6.80;1.00
14210;DHT22;7188;56.070;12.698;2023-04-01T17:11:19;6.50;1.00
14210;DHT22;7188;56.070;12.698;2023-04-01T17:16:51;6.20;1.00
14210;DHT22;7188;56.070;12.698;2023-04-01T17:24:48;6.00;1.00
14210;DHT22;7188;56.070;12.698;2023-04-01T17:30:26;5.90;1.00
14210;DHT22;7188;56.070;12.698;2023-04-01T17:35:59;5.70;1.00
14210;DHT22;7188;56.070;12.698;2023-04-01T17:50:02;5.40;1.00
14210;DHT22;7188;56.070;12.698;2023-04-01T17:58:17;5.10;1.00
14210;DHT22;7188;56.070;12.698;2023-04-01T18:01:05;5.10;1.00
14210;DHT22;7188;56.070;12.698;2023-04-01T18:06:41;4.90;1.00
14210;DHT22;7188;56.070;12.698;2023-04-01T18:14:54;4.70;1.00
14210;DHT22;7188;56.070;12.698;2023-04-01T18:17:32;4.70;1.00
14210;DHT22;7188;56.070;12.698;2023-04-01T18:23:03;4.50;1.00
14210;DHT22;7188;56.070;12.698;2023-04-01T18:25:36;4.50;1.00
14210;DHT22;7188;56.070;12.698;2023-04-01T18:28:33;4.40;1.00
14210;DHT22;7188;56.070;12.698;2023-04-01T18:31:08;4.30;1.00
14210;DHT22;7188;56.070;12.698;2023-04-01T18:36:43;4.30;1.00
14210;DHT22;7188;56.070;12.698;2023-04-01T18:42:24;4.10;1.00
14210;DHT22;7188;56.070;12.698;2023-04-01T18:45:18;4.10;1.00
14210;DHT22;7188;56.070;12.698;2023-04-01T18:50:37;4.00;1.00
14210;DHT22;7188;56.070;12.698;2023-04-01T18:59:04;3.90;1.00
14210;DHT22;7188;56.070;12.698;2023-04-01T19:01:42;3.80;1.00
14210;DHT22;7188;56.070;12.698;2023-04-01T19:04:52;3.80;1.00
14210;DHT22;7188;56.070;12.698;2023-04-01T19:13:02;3.60;1.00
14210;DHT22;7188;56.070;12.698;2023-04-01T19:15:51;3.60;1.00
14210;DHT22;7188;56.070;12.698;2023-04-01T19:18:49;3.60;1.00
14210;DHT22;7188;56.070;12.698;2023-04-01T19:32:16;3.30;1.00
14210;DHT22;7188;56.070;12.698;2023-04-01T19:48:24;3.10;1.00
14210;DHT22;7188;56.070;12.698;2023-04-01T19:50:59;3.10;1.00
14210;DHT22;7188;56.070;12.698;2023-04-01T19:53:35;3.10;1.00
14210;DHT22;7188;56.070;12.698;2023-04-01T19:56:23;3.10;1.00
14210;DHT22;7188;56.070;12.698;2023-04-01T20:01:51;3.00;1.00
14210;DHT22;7188;56.070;12.698;2023-04-01T20:04:28;2.90;1.00
14210;DHT22;7188;56.070;12.698;2023-04-01T20:15:42;2.70;1.00
14210;DHT22;7188;56.070;12.698;2023-04-01T20:18:16;2.60;1.00
14210;DHT22;7188;56.070;12.698;2023-04-01T20:20:57;2.60;1.00
14210;DHT22;7188;56.070;12.698;2023-04-01T20:23:50;2.50;1.00
14210;DHT22;7188;56.070;12.698;2023-04-01T20:26:22;2.50;1.00
14210;DHT22;7188;56.070;12.698;2023-04-01T20:31:43;2.50;1.00
14210;DHT22;7188;56.070;12.698;2023-04-01T20:34:48;2.50;1.00
14210;DHT22;7188;56.070;12.698;2023-04-01T20:37:32;2.40;1.00
14210;DHT22;7188;56.070;12.698;2023-04-01T20:40:08;2.40;1.00
14210;DHT22;7188;56.070;12.698;2023-04-01T20:51:06;2.30;1.00
14210;DHT22;7188;56.070;12.698;2023-04-01T20:53:50;2.20;1.00
14210;DHT22;7188;56.070;12.698;2023-04-01T20:56:17;2.10;1.00
14210;DHT22;7188;56.070;12.698;2023-04-01T21:07:41;2.00;1.00
14210;DHT22;7188;56.070;12.698;2023-04-01T21:10:29;1.90;1.00
14210;DHT22;7188;56.070;12.698;2023-04-01T21:13:26;1.80;1.00
14210;DHT22;7188;56.070;12.698;2023-04-01T21:32:32;1.70;1.00
14210;DHT22;7188;56.070;12.698;2023-04-01T21:57:30;1.60;1.00
14210;DHT22;7188;56.070;12.698;2023-04-01T22:00:24;1.60;1.00
14210;DHT22;7188;56.070;12.698;2023-04-01T22:03:14;1.60;1.00
14210;DHT22;7188;56.070;12.698;2023-04-01T22:11:25;1.50;1.00
14210;DHT22;7188;56.070;12.698;2023-04-01T22:14:08;1.50;1.00
14210;DHT22;7188;56.070;12.698;2023-04-01T22:22:55;1.40;1.00
14210;DHT22;7188;56.070;12.698;2023-04-01T22:28:09;1.30;1.00
14210;DHT22;7188;56.070;12.698;2023-04-01T22:31:01;1.30;22.80
14210;DHT22;7188;56.070;12.698;2023-04-01T22:42:16;1.20;99.90
14210;DHT22;7188;56.070;12.698;2023-04-01T22:44:57;1.10;99.90
14210;DHT22;7188;56.070;12.698;2023-04-01T22:50:33;1.10;99.90
14210;DHT22;7188;56.070;12.698;2023-04-01T22:55:32;1.20;99.90
14210;DHT22;7188;56.070;12.698;2023-04-01T22:58:13;1.20;99.90
14210;DHT22;7188;56.070;12.698;2023-04-01T23:00:43;1.20;99.90
14210;DHT22;7188;56.070;12.698;2023-04-01T23:03:18;1.20;99.90
14210;DHT22;7188;56.070;12.698;2023-04-01T23:05:56;1.20;99.90
14210;DHT22;7188;56.070;12.698;2023-04-01T23:11:10;1.20;99.90
14210;DHT22;7188;56.070;12.698;2023-04-01T23:13:44;1.20;99.90
14210;DHT22;7188;56.070;12.698;2023-04-01T23:16:11;1.20;99.90
14210;DHT22;7188;56.070;12.698;2023-04-01T23:24:49;1.10;99.90
14210;DHT22;7188;56.070;12.698;2023-04-01T23:27:22;1.10;99.90
14210;DHT22;7188;56.070;12.698;2023-04-01T23:29:50;1.10;99.90
14210;DHT22;7188;56.070;12.698;2023-04-01T23:32:18;1.10;99.90
14210;DHT22;7188;56.070;12.698;2023-04-01T23:34:50;1.10;99.90
14210;DHT22;7188;56.070;12.698;2023-04-01T23:37:17;1.10;99.90
14210;DHT22;7188;56.070;12.698;2023-04-01T23:39:53;1.10;99.90
14210;DHT22;7188;56.070;12.698;2023-04-01T23:42:28;1.00;99.90
14210;DHT22;7188;56.070;12.698;2023-04-01T23:45:11;1.00;99.90
14210;DHT22;7188;56.070;12.698;2023-04-01T23:47:39;1.00;99.90
14210;DHT22;7188;56.070;12.698;2023-04-01T23:50:23;0.90;99.90
14210;DHT22;7188;56.070;12.698;2023-04-01T23:53:21;0.80;99.90
14210;DHT22;7188;56.070;12.698;2023-04-01T23:55:48;0.80;99.90
14210;DHT22;7188;56.070;12.698;2023-04-01T23:58:27;0.80;99.90
